sensor_id;sensor_type;location;lat;lon;timestamp;P1;durP1;ratioP1;P2;durP2;ratioP2
12591;SDS011;6361;52.120;5.108;2023-09-18T00:01:36;29.77;;;21.67;;
12591;SDS011;6361;52.120;5.108;2023-09-18T00:04:04;25.52;;;20.60;;
12591;SDS011;6361;52.120;5.108;2023-09-18T00:06:30;28.30;;;22.27;;
12591;SDS011;6361;52.120;5.108;2023-09-18T00:08:55;28.42;;;22.40;;
12591;SDS011;6361;52.120;5.108;2023-09-18T00:11:21;27.35;;;21.45;;
12591;SDS011;6361;52.120;5.108;2023-09-18T00:13:46;32.67;;;21.33;;
12591;SDS011;6361;52.120;5.108;2023-09-18T00:16:12;26.77;;;21.83;;
12591;SDS011;6361;52.120;5.108;2023-09-18T00:18:38;25.45;;;21.10;;
12591;SDS011;6361;52.120;5.108;2023-09-18T00:21:03;26.55;;;20.65;;
12591;SDS011;6361;52.120;5.108;2023-09-18T00:23:29;25.17;;;20.45;;
12591;SDS011;6361;52.120;5.108;2023-09-18T00:25:54;24.00;;;20.33;;
12591;SDS011;6361;52.120;5.108;2023-09-18T00:28:19;23.60;;;19.55;;
12591;SDS011;6361;52.120;5.108;2023-09-18T00:30:49;26.63;;;19.92;;
12591;SDS011;6361;52.120;5.108;2023-09-18T00:33:15;27.77;;;20.60;;
12591;SDS011;6361;52.120;5.108;2023-09-18T00:35:44;28.42;;;20.35;;
12591;SDS011;6361;52.120;5.108;2023-09-18T00:38:18;26.38;;;19.77;;
12591;SDS011;6361;52.120;5.108;2023-09-18T00:40:44;24.38;;;19.73;;
12591;SDS011;6361;52.120;5.108;2023-09-18T00:43:10;24.42;;;20.27;;
12591;SDS011;6361;52.120;5.108;2023-09-18T00:45:38;26.30;;;19.52;;
12591;SDS011;6361;52.120;5.108;2023-09-18T00:48:06;25.63;;;20.20;;
12591;SDS011;6361;52.120;5.108;2023-09-18T00:50:31;24.30;;;19.35;;
12591;SDS011;6361;52.120;5.108;2023-09-18T00:52:57;25.35;;;19.52;;
12591;SDS011;6361;52.120;5.108;2023-09-18T00:55:23;28.63;;;19.33;;
12591;SDS011;6361;52.120;5.108;2023-09-18T00:57:49;21.55;;;18.80;;
12591;SDS011;6361;52.120;5.108;2023-09-18T01:00:14;25.15;;;19.30;;
12591;SDS011;6361;52.120;5.108;2023-09-18T01:02:41;22.92;;;18.67;;
12591;SDS011;6361;52.120;5.108;2023-09-18T01:05:08;22.02;;;18.55;;
12591;SDS011;6361;52.120;5.108;2023-09-18T01:07:33;25.48;;;18.35;;
12591;SDS011;6361;52.120;5.108;2023-09-18T01:09:59;24.77;;;19.67;;
12591;SDS011;6361;52.120;5.108;2023-09-18T01:12:34;22.10;;;17.95;;
12591;SDS011;6361;52.120;5.108;2023-09-18T01:17:38;29.77;;;19.33;;
12591;SDS011;6361;52.120;5.108;2023-09-18T01:20:04;22.92;;;18.15;;
12591;SDS011;6361;52.120;5.108;2023-09-18T01:22:30;24.23;;;19.88;;
12591;SDS011;6361;52.120;5.108;2023-09-18T01:24:57;23.92;;;18.27;;
12591;SDS011;6361;52.120;5.108;2023-09-18T01:27:22;19.92;;;16.90;;
12591;SDS011;6361;52.120;5.108;2023-09-18T01:29:48;20.48;;;17.98;;
12591;SDS011;6361;52.120;5.108;2023-09-18T01:32:14;19.90;;;17.02;;
12591;SDS011;6361;52.120;5.108;2023-09-18T01:34:45;20.55;;;17.13;;
12591;SDS011;6361;52.120;5.108;2023-09-18T01:37:11;17.90;;;15.77;;
12591;SDS011;6361;52.120;5.108;2023-09-18T01:39:37;20.40;;;17.15;;
12591;SDS011;6361;52.120;5.108;2023-09-18T01:42:04;23.05;;;17.38;;
12591;SDS011;6361;52.120;5.108;2023-09-18T01:44:31;20.77;;;16.98;;
12591;SDS011;6361;52.120;5.108;2023-09-18T01:47:01;20.17;;;16.33;;
12591;SDS011;6361;52.120;5.108;2023-09-18T01:49:34;20.27;;;16.48;;
12591;SDS011;6361;52.120;5.108;2023-09-18T01:52:00;20.15;;;15.13;;
12591;SDS011;6361;52.120;5.108;2023-09-18T01:54:26;21.35;;;16.63;;
12591;SDS011;6361;52.120;5.108;2023-09-18T01:56:52;19.17;;;15.82;;
12591;SDS011;6361;52.120;5.108;2023-09-18T01:59:18;20.58;;;16.33;;
12591;SDS011;6361;52.120;5.108;2023-09-18T02:01:44;21.00;;;15.32;;
12591;SDS011;6361;52.120;5.108;2023-09-18T02:04:09;20.58;;;15.07;;
12591;SDS011;6361;52.120;5.108;2023-09-18T02:06:35;29.67;;;16.55;;
12591;SDS011;6361;52.120;5.108;2023-09-18T02:09:01;17.20;;;15.25;;
12591;SDS011;6361;52.120;5.108;2023-09-18T02:11:26;21.40;;;15.00;;
12591;SDS011;6361;52.120;5.108;2023-09-18T02:13:52;21.27;;;15.98;;
12591;SDS011;6361;52.120;5.108;2023-09-18T02:16:17;25.33;;;16.92;;
12591;SDS011;6361;52.120;5.108;2023-09-18T02:18:47;20.77;;;16.63;;
12591;SDS011;6361;52.120;5.108;2023-09-18T02:21:18;25.13;;;18.05;;
12591;SDS011;6361;52.120;5.108;2023-09-18T02:23:45;21.10;;;17.17;;
12591;SDS011;6361;52.120;5.108;2023-09-18T02:26:10;23.27;;;18.05;;
12591;SDS011;6361;52.120;5.108;2023-09-18T02:28:36;26.33;;;17.73;;
12591;SDS011;6361;52.120;5.108;2023-09-18T02:31:01;25.88;;;18.70;;
12591;SDS011;6361;52.120;5.108;2023-09-18T02:33:27;24.15;;;18.33;;
12591;SDS011;6361;52.120;5.108;2023-09-18T02:35:53;24.88;;;19.15;;
12591;SDS011;6361;52.120;5.108;2023-09-18T02:38:18;24.92;;;20.35;;
12591;SDS011;6361;52.120;5.108;2023-09-18T02:40:44;26.83;;;20.38;;
12591;SDS011;6361;52.120;5.108;2023-09-18T02:43:09;26.25;;;19.77;;
12591;SDS011;6361;52.120;5.108;2023-09-18T02:45:34;26.10;;;20.13;;
12591;SDS011;6361;52.120;5.108;2023-09-18T02:48:00;25.90;;;20.67;;
12591;SDS011;6361;52.120;5.108;2023-09-18T02:50:27;26.05;;;21.05;;
12591;SDS011;6361;52.120;5.108;2023-09-18T02:52:53;28.50;;;20.92;;
12591;SDS011;6361;52.120;5.108;2023-09-18T02:55:18;25.15;;;21.77;;
12591;SDS011;6361;52.120;5.108;2023-09-18T02:57:44;25.15;;;20.52;;
12591;SDS011;6361;52.120;5.108;2023-09-18T03:00:11;24.23;;;19.75;;
12591;SDS011;6361;52.120;5.108;2023-09-18T03:02:37;27.75;;;21.38;;
12591;SDS011;6361;52.120;5.108;2023-09-18T03:05:02;27.17;;;20.90;;
12591;SDS011;6361;52.120;5.108;2023-09-18T03:07:29;30.45;;;21.63;;
12591;SDS011;6361;52.120;5.108;2023-09-18T03:09:55;29.77;;;21.40;;
12591;SDS011;6361;52.120;5.108;2023-09-18T03:12:20;26.77;;;20.38;;
12591;SDS011;6361;52.120;5.108;2023-09-18T03:14:47;26.60;;;20.60;;
12591;SDS011;6361;52.120;5.108;2023-09-18T03:17:12;26.60;;;20.27;;
12591;SDS011;6361;52.120;5.108;2023-09-18T03:19:38;32.20;;;22.25;;
12591;SDS011;6361;52.120;5.108;2023-09-18T03:22:03;29.80;;;21.55;;
12591;SDS011;6361;52.120;5.108;2023-09-18T03:24:29;30.83;;;22.08;;
12591;SDS011;6361;52.120;5.108;2023-09-18T03:26:54;28.45;;;21.80;;
12591;SDS011;6361;52.120;5.108;2023-09-18T03:29:20;28.83;;;21.17;;
12591;SDS011;6361;52.120;5.108;2023-09-18T03:31:45;28.70;;;22.35;;
12591;SDS011;6361;52.120;5.108;2023-09-18T03:34:10;31.50;;;23.05;;
12591;SDS011;6361;52.120;5.108;2023-09-18T03:36:36;28.48;;;21.83;;
12591;SDS011;6361;52.120;5.108;2023-09-18T03:39:02;30.83;;;21.88;;
12591;SDS011;6361;52.120;5.108;2023-09-18T03:41:29;29.13;;;22.13;;
12591;SDS011;6361;52.120;5.108;2023-09-18T03:43:58;29.70;;;22.27;;
12591;SDS011;6361;52.120;5.108;2023-09-18T03:46:24;27.17;;;21.33;;
12591;SDS011;6361;52.120;5.108;2023-09-18T03:48:50;34.17;;;21.45;;
12591;SDS011;6361;52.120;5.108;2023-09-18T03:51:15;29.10;;;20.23;;
12591;SDS011;6361;52.120;5.108;2023-09-18T03:53:41;27.73;;;20.30;;
12591;SDS011;6361;52.120;5.108;2023-09-18T03:56:06;25.15;;;19.80;;
12591;SDS011;6361;52.120;5.108;2023-09-18T03:58:32;28.00;;;18.35;;
12591;SDS011;6361;52.120;5.108;2023-09-18T04:00:57;25.75;;;18.05;;
12591;SDS011;6361;52.120;5.108;2023-09-18T04:03:23;25.20;;;17.13;;
12591;SDS011;6361;52.120;5.108;2023-09-18T04:05:48;22.33;;;16.73;;
12591;SDS011;6361;52.120;5.108;2023-09-18T04:08:13;23.05;;;16.77;;
12591;SDS011;6361;52.120;5.108;2023-09-18T04:10:39;26.73;;;18.15;;
12591;SDS011;6361;52.120;5.108;2023-09-18T04:13:04;25.40;;;17.25;;
12591;SDS011;6361;52.120;5.108;2023-09-18T04:15:29;13.57;;;9.27;;
12591;SDS011;6361;52.120;5.108;2023-09-18T04:17:55;13.68;;;7.18;;
12591;SDS011;6361;52.120;5.108;2023-09-18T04:20:21;7.82;;;4.45;;
12591;SDS011;6361;52.120;5.108;2023-09-18T04:22:47;3.45;;;2.00;;
12591;SDS011;6361;52.120;5.108;2023-09-18T04:26:02;2.85;;;1.67;;
12591;SDS011;6361;52.120;5.108;2023-09-18T04:28:28;4.07;;;1.60;;
12591;SDS011;6361;52.120;5.108;2023-09-18T04:30:53;4.13;;;2.00;;
12591;SDS011;6361;52.120;5.108;2023-09-18T04:33:19;7.18;;;3.90;;
12591;SDS011;6361;52.120;5.108;2023-09-18T04:35:46;11.52;;;5.35;;
12591;SDS011;6361;52.120;5.108;2023-09-18T04:38:12;9.35;;;6.57;;
12591;SDS011;6361;52.120;5.108;2023-09-18T04:40:39;13.13;;;8.05;;
12591;SDS011;6361;52.120;5.108;2023-09-18T04:43:04;12.05;;;8.13;;
12591;SDS011;6361;52.120;5.108;2023-09-18T04:45:30;13.70;;;9.32;;
12591;SDS011;6361;52.120;5.108;2023-09-18T04:47:56;13.93;;;9.68;;
12591;SDS011;6361;52.120;5.108;2023-09-18T04:50:22;17.13;;;10.45;;
12591;SDS011;6361;52.120;5.108;2023-09-18T04:52:47;13.82;;;9.82;;
12591;SDS011;6361;52.120;5.108;2023-09-18T04:55:17;12.25;;;9.63;;
12591;SDS011;6361;52.120;5.108;2023-09-18T04:57:42;14.32;;;10.48;;
12591;SDS011;6361;52.120;5.108;2023-09-18T05:00:07;13.98;;;10.02;;
12591;SDS011;6361;52.120;5.108;2023-09-18T05:02:34;12.90;;;9.68;;
12591;SDS011;6361;52.120;5.108;2023-09-18T05:05:00;15.25;;;10.45;;
12591;SDS011;6361;52.120;5.108;2023-09-18T05:07:26;17.60;;;11.40;;
12591;SDS011;6361;52.120;5.108;2023-09-18T05:09:51;15.88;;;11.15;;
12591;SDS011;6361;52.120;5.108;2023-09-18T05:12:17;18.83;;;11.63;;
12591;SDS011;6361;52.120;5.108;2023-09-18T05:14:42;20.30;;;11.95;;
12591;SDS011;6361;52.120;5.108;2023-09-18T05:17:14;15.38;;;11.40;;
12591;SDS011;6361;52.120;5.108;2023-09-18T05:19:40;17.05;;;12.27;;
12591;SDS011;6361;52.120;5.108;2023-09-18T05:22:05;18.13;;;12.35;;
12591;SDS011;6361;52.120;5.108;2023-09-18T05:24:31;20.30;;;13.60;;
12591;SDS011;6361;52.120;5.108;2023-09-18T05:26:57;20.65;;;13.93;;
12591;SDS011;6361;52.120;5.108;2023-09-18T05:29:22;17.02;;;13.07;;
12591;SDS011;6361;52.120;5.108;2023-09-18T05:31:47;17.40;;;13.50;;
12591;SDS011;6361;52.120;5.108;2023-09-18T05:34:13;18.40;;;13.00;;
12591;SDS011;6361;52.120;5.108;2023-09-18T05:36:38;20.20;;;13.50;;
12591;SDS011;6361;52.120;5.108;2023-09-18T05:39:04;20.77;;;13.95;;
12591;SDS011;6361;52.120;5.108;2023-09-18T05:41:30;18.90;;;13.27;;
12591;SDS011;6361;52.120;5.108;2023-09-18T05:43:56;21.45;;;14.18;;
12591;SDS011;6361;52.120;5.108;2023-09-18T05:46:22;20.33;;;13.68;;
12591;SDS011;6361;52.120;5.108;2023-09-18T05:48:47;20.25;;;13.35;;
12591;SDS011;6361;52.120;5.108;2023-09-18T05:51:12;18.10;;;12.75;;
12591;SDS011;6361;52.120;5.108;2023-09-18T05:53:38;17.80;;;13.13;;
12591;SDS011;6361;52.120;5.108;2023-09-18T05:56:04;19.27;;;13.57;;
12591;SDS011;6361;52.120;5.108;2023-09-18T05:58:31;14.98;;;12.65;;
12591;SDS011;6361;52.120;5.108;2023-09-18T06:03:44;17.20;;;13.30;;
12591;SDS011;6361;52.120;5.108;2023-09-18T06:06:09;20.08;;;13.57;;
12591;SDS011;6361;52.120;5.108;2023-09-18T06:08:35;19.23;;;12.77;;
12591;SDS011;6361;52.120;5.108;2023-09-18T06:11:00;18.05;;;11.98;;
12591;SDS011;6361;52.120;5.108;2023-09-18T06:13:25;14.88;;;12.00;;
12591;SDS011;6361;52.120;5.108;2023-09-18T06:15:52;15.95;;;10.75;;
12591;SDS011;6361;52.120;5.108;2023-09-18T06:18:19;15.15;;;10.75;;
12591;SDS011;6361;52.120;5.108;2023-09-18T06:20:48;14.68;;;10.90;;
12591;SDS011;6361;52.120;5.108;2023-09-18T06:23:14;14.45;;;10.57;;
12591;SDS011;6361;52.120;5.108;2023-09-18T06:25:39;15.02;;;10.32;;
12591;SDS011;6361;52.120;5.108;2023-09-18T06:28:05;12.27;;;9.63;;
12591;SDS011;6361;52.120;5.108;2023-09-18T06:30:30;13.52;;;9.80;;
12591;SDS011;6361;52.120;5.108;2023-09-18T06:32:57;13.40;;;9.63;;
12591;SDS011;6361;52.120;5.108;2023-09-18T06:35:23;17.35;;;8.75;;
12591;SDS011;6361;52.120;5.108;2023-09-18T06:37:48;10.90;;;8.27;;
12591;SDS011;6361;52.120;5.108;2023-09-18T06:40:14;13.57;;;8.43;;
12591;SDS011;6361;52.120;5.108;2023-09-18T06:42:39;13.80;;;8.40;;
12591;SDS011;6361;52.120;5.108;2023-09-18T06:45:05;11.95;;;7.60;;
12591;SDS011;6361;52.120;5.108;2023-09-18T06:47:32;12.63;;;7.50;;
12591;SDS011;6361;52.120;5.108;2023-09-18T06:49:58;10.23;;;7.45;;
12591;SDS011;6361;52.120;5.108;2023-09-18T06:52:25;10.90;;;7.38;;
12591;SDS011;6361;52.120;5.108;2023-09-18T06:54:51;11.70;;;7.72;;
12591;SDS011;6361;52.120;5.108;2023-09-18T06:57:17;10.13;;;7.47;;
12591;SDS011;6361;52.120;5.108;2023-09-18T06:59:42;12.70;;;7.45;;
12591;SDS011;6361;52.120;5.108;2023-09-18T07:02:08;12.95;;;7.65;;
12591;SDS011;6361;52.120;5.108;2023-09-18T07:04:33;13.63;;;7.35;;
12591;SDS011;6361;52.120;5.108;2023-09-18T07:06:58;16.73;;;7.80;;
12591;SDS011;6361;52.120;5.108;2023-09-18T07:09:24;10.65;;;7.47;;
12591;SDS011;6361;52.120;5.108;2023-09-18T07:11:50;13.13;;;7.90;;
12591;SDS011;6361;52.120;5.108;2023-09-18T07:14:16;11.52;;;7.63;;
12591;SDS011;6361;52.120;5.108;2023-09-18T07:16:41;13.70;;;7.88;;
12591;SDS011;6361;52.120;5.108;2023-09-18T07:19:07;11.85;;;8.23;;
12591;SDS011;6361;52.120;5.108;2023-09-18T07:21:36;11.52;;;8.18;;
12591;SDS011;6361;52.120;5.108;2023-09-18T07:24:02;14.77;;;8.63;;
12591;SDS011;6361;52.120;5.108;2023-09-18T07:26:28;11.25;;;8.32;;
12591;SDS011;6361;52.120;5.108;2023-09-18T07:28:53;11.10;;;9.20;;
12591;SDS011;6361;52.120;5.108;2023-09-18T07:31:19;13.27;;;9.13;;
12591;SDS011;6361;52.120;5.108;2023-09-18T07:33:44;13.95;;;8.75;;
12591;SDS011;6361;52.120;5.108;2023-09-18T07:36:09;14.43;;;9.32;;
12591;SDS011;6361;52.120;5.108;2023-09-18T07:38:39;12.05;;;9.25;;
12591;SDS011;6361;52.120;5.108;2023-09-18T07:41:08;10.77;;;8.88;;
12591;SDS011;6361;52.120;5.108;2023-09-18T07:43:34;12.07;;;7.93;;
12591;SDS011;6361;52.120;5.108;2023-09-18T07:45:59;14.48;;;8.23;;
12591;SDS011;6361;52.120;5.108;2023-09-18T07:48:26;12.27;;;8.63;;
12591;SDS011;6361;52.120;5.108;2023-09-18T07:50:52;11.93;;;8.23;;
12591;SDS011;6361;52.120;5.108;2023-09-18T07:53:19;12.70;;;8.65;;
12591;SDS011;6361;52.120;5.108;2023-09-18T07:55:44;9.30;;;8.00;;
12591;SDS011;6361;52.120;5.108;2023-09-18T07:58:12;12.50;;;8.70;;
12591;SDS011;6361;52.120;5.108;2023-09-18T08:00:38;10.20;;;8.05;;
12591;SDS011;6361;52.120;5.108;2023-09-18T08:03:04;11.07;;;8.07;;
12591;SDS011;6361;52.120;5.108;2023-09-18T08:05:29;13.38;;;8.05;;
12591;SDS011;6361;52.120;5.108;2023-09-18T08:07:56;10.88;;;8.57;;
12591;SDS011;6361;52.120;5.108;2023-09-18T08:10:23;10.70;;;8.13;;
12591;SDS011;6361;52.120;5.108;2023-09-18T08:12:48;12.73;;;9.02;;
12591;SDS011;6361;52.120;5.108;2023-09-18T08:15:16;11.48;;;8.50;;
12591;SDS011;6361;52.120;5.108;2023-09-18T08:17:42;12.73;;;8.43;;
12591;SDS011;6361;52.120;5.108;2023-09-18T08:20:07;10.93;;;7.80;;
12591;SDS011;6361;52.120;5.108;2023-09-18T08:22:38;13.73;;;8.38;;
12591;SDS011;6361;52.120;5.108;2023-09-18T08:25:05;13.23;;;8.60;;
12591;SDS011;6361;52.120;5.108;2023-09-18T08:27:33;13.05;;;7.63;;
12591;SDS011;6361;52.120;5.108;2023-09-18T08:29:58;14.40;;;8.02;;
12591;SDS011;6361;52.120;5.108;2023-09-18T08:32:23;10.05;;;7.53;;
12591;SDS011;6361;52.120;5.108;2023-09-18T08:34:49;11.38;;;7.72;;
12591;SDS011;6361;52.120;5.108;2023-09-18T08:37:14;11.52;;;7.43;;
12591;SDS011;6361;52.120;5.108;2023-09-18T08:39:40;11.45;;;7.43;;
12591;SDS011;6361;52.120;5.108;2023-09-18T08:42:05;9.88;;;7.88;;
12591;SDS011;6361;52.120;5.108;2023-09-18T08:44:32;10.38;;;7.40;;
12591;SDS011;6361;52.120;5.108;2023-09-18T08:46:59;12.98;;;7.22;;
12591;SDS011;6361;52.120;5.108;2023-09-18T08:49:25;13.73;;;7.18;;
12591;SDS011;6361;52.120;5.108;2023-09-18T08:51:52;10.30;;;7.40;;
12591;SDS011;6361;52.120;5.108;2023-09-18T08:54:20;10.05;;;6.70;;
12591;SDS011;6361;52.120;5.108;2023-09-18T08:56:49;8.85;;;6.80;;
12591;SDS011;6361;52.120;5.108;2023-09-18T08:59:15;10.70;;;7.13;;
12591;SDS011;6361;52.120;5.108;2023-09-18T09:01:41;14.73;;;7.10;;
12591;SDS011;6361;52.120;5.108;2023-09-18T09:04:07;12.75;;;6.93;;
12591;SDS011;6361;52.120;5.108;2023-09-18T09:06:32;9.25;;;6.57;;
12591;SDS011;6361;52.120;5.108;2023-09-18T09:08:57;12.68;;;6.55;;
12591;SDS011;6361;52.120;5.108;2023-09-18T09:11:24;10.07;;;6.55;;
12591;SDS011;6361;52.120;5.108;2023-09-18T09:14:08;7.25;;;5.68;;
12591;SDS011;6361;52.120;5.108;2023-09-18T09:16:40;8.63;;;6.20;;
12591;SDS011;6361;52.120;5.108;2023-09-18T09:19:07;10.38;;;6.28;;
12591;SDS011;6361;52.120;5.108;2023-09-18T09:21:39;9.38;;;6.00;;
12591;SDS011;6361;52.120;5.108;2023-09-18T09:24:05;10.10;;;6.00;;
12591;SDS011;6361;52.120;5.108;2023-09-18T09:26:31;10.85;;;6.50;;
12591;SDS011;6361;52.120;5.108;2023-09-18T09:28:56;8.65;;;6.18;;
12591;SDS011;6361;52.120;5.108;2023-09-18T09:31:28;11.10;;;6.18;;
12591;SDS011;6361;52.120;5.108;2023-09-18T09:33:55;10.38;;;5.95;;
12591;SDS011;6361;52.120;5.108;2023-09-18T09:36:22;10.25;;;5.93;;
12591;SDS011;6361;52.120;5.108;2023-09-18T09:38:47;10.02;;;6.22;;
12591;SDS011;6361;52.120;5.108;2023-09-18T09:41:13;10.65;;;5.93;;
12591;SDS011;6361;52.120;5.108;2023-09-18T09:43:41;7.28;;;5.93;;
12591;SDS011;6361;52.120;5.108;2023-09-18T09:46:07;8.40;;;5.80;;
12591;SDS011;6361;52.120;5.108;2023-09-18T09:48:44;9.32;;;6.25;;
12591;SDS011;6361;52.120;5.108;2023-09-18T09:51:24;9.70;;;6.63;;
12591;SDS011;6361;52.120;5.108;2023-09-18T09:53:49;7.60;;;6.78;;
12591;SDS011;6361;52.120;5.108;2023-09-18T09:56:16;12.13;;;6.85;;
12591;SDS011;6361;52.120;5.108;2023-09-18T09:59:03;10.45;;;6.88;;
12591;SDS011;6361;52.120;5.108;2023-09-18T10:01:32;9.80;;;7.20;;
12591;SDS011;6361;52.120;5.108;2023-09-18T10:03:59;11.15;;;7.13;;
12591;SDS011;6361;52.120;5.108;2023-09-18T10:06:43;9.52;;;6.78;;
12591;SDS011;6361;52.120;5.108;2023-09-18T10:09:10;8.18;;;6.63;;
12591;SDS011;6361;52.120;5.108;2023-09-18T10:11:40;8.43;;;6.85;;
12591;SDS011;6361;52.120;5.108;2023-09-18T10:14:17;10.50;;;7.13;;
12591;SDS011;6361;52.120;5.108;2023-09-18T10:16:52;8.88;;;6.50;;
12591;SDS011;6361;52.120;5.108;2023-09-18T10:24:47;9.45;;;6.70;;
12591;SDS011;6361;52.120;5.108;2023-09-18T10:27:14;10.50;;;7.10;;
12591;SDS011;6361;52.120;5.108;2023-09-18T10:29:41;8.48;;;6.55;;
12591;SDS011;6361;52.120;5.108;2023-09-18T10:32:07;9.00;;;6.40;;
12591;SDS011;6361;52.120;5.108;2023-09-18T10:34:33;10.50;;;6.32;;
12591;SDS011;6361;52.120;5.108;2023-09-18T10:36:59;8.00;;;6.63;;
12591;SDS011;6361;52.120;5.108;2023-09-18T10:39:26;8.80;;;5.88;;
12591;SDS011;6361;52.120;5.108;2023-09-18T10:41:52;8.60;;;5.78;;
12591;SDS011;6361;52.120;5.108;2023-09-18T10:44:19;10.60;;;5.90;;
12591;SDS011;6361;52.120;5.108;2023-09-18T10:46:45;9.40;;;5.45;;
12591;SDS011;6361;52.120;5.108;2023-09-18T10:49:11;14.55;;;6.13;;
12591;SDS011;6361;52.120;5.108;2023-09-18T10:51:38;9.43;;;6.22;;
12591;SDS011;6361;52.120;5.108;2023-09-18T10:54:09;9.30;;;6.53;;
12591;SDS011;6361;52.120;5.108;2023-09-18T10:56:35;10.10;;;6.60;;
12591;SDS011;6361;52.120;5.108;2023-09-18T10:59:01;9.38;;;6.72;;
12591;SDS011;6361;52.120;5.108;2023-09-18T11:01:29;9.98;;;6.65;;
12591;SDS011;6361;52.120;5.108;2023-09-18T11:04:01;13.25;;;6.50;;
12591;SDS011;6361;52.120;5.108;2023-09-18T11:09:19;13.60;;;8.02;;
12591;SDS011;6361;52.120;5.108;2023-09-18T11:11:45;13.02;;;6.43;;
12591;SDS011;6361;52.120;5.108;2023-09-18T11:14:13;12.27;;;6.65;;
12591;SDS011;6361;52.120;5.108;2023-09-18T11:16:40;6.80;;;6.10;;
12591;SDS011;6361;52.120;5.108;2023-09-18T11:19:12;15.23;;;7.88;;
12591;SDS011;6361;52.120;5.108;2023-09-18T11:21:39;10.75;;;6.03;;
12591;SDS011;6361;52.120;5.108;2023-09-18T11:24:05;14.02;;;6.45;;
12591;SDS011;6361;52.120;5.108;2023-09-18T11:26:36;8.80;;;6.15;;
12591;SDS011;6361;52.120;5.108;2023-09-18T11:29:06;8.80;;;6.38;;
12591;SDS011;6361;52.120;5.108;2023-09-18T11:31:40;10.25;;;6.25;;
12591;SDS011;6361;52.120;5.108;2023-09-18T11:34:15;6.45;;;5.22;;
12591;SDS011;6361;52.120;5.108;2023-09-18T11:36:54;8.82;;;5.20;;
12591;SDS011;6361;52.120;5.108;2023-09-18T11:39:39;10.50;;;6.07;;
12591;SDS011;6361;52.120;5.108;2023-09-18T11:42:06;11.00;;;6.22;;
12591;SDS011;6361;52.120;5.108;2023-09-18T11:44:35;8.48;;;5.57;;
12591;SDS011;6361;52.120;5.108;2023-09-18T11:47:09;8.73;;;5.55;;
12591;SDS011;6361;52.120;5.108;2023-09-18T11:49:41;6.57;;;5.85;;
12591;SDS011;6361;52.120;5.108;2023-09-18T11:52:14;7.97;;;5.85;;
12591;SDS011;6361;52.120;5.108;2023-09-18T11:54:40;10.18;;;5.80;;
12591;SDS011;6361;52.120;5.108;2023-09-18T11:57:06;8.40;;;5.38;;
12591;SDS011;6361;52.120;5.108;2023-09-18T11:59:36;8.00;;;5.18;;
12591;SDS011;6361;52.120;5.108;2023-09-18T12:02:03;8.77;;;5.05;;
12591;SDS011;6361;52.120;5.108;2023-09-18T12:04:31;8.15;;;4.85;;
12591;SDS011;6361;52.120;5.108;2023-09-18T12:06:58;7.10;;;4.90;;
12591;SDS011;6361;52.120;5.108;2023-09-18T12:09:26;13.20;;;4.80;;
12591;SDS011;6361;52.120;5.108;2023-09-18T12:11:52;8.00;;;4.72;;
12591;SDS011;6361;52.120;5.108;2023-09-18T12:14:19;7.57;;;4.53;;
12591;SDS011;6361;52.120;5.108;2023-09-18T12:16:45;7.65;;;5.07;;
12591;SDS011;6361;52.120;5.108;2023-09-18T12:19:15;9.48;;;5.15;;
12591;SDS011;6361;52.120;5.108;2023-09-18T12:21:42;7.65;;;5.22;;
12591;SDS011;6361;52.120;5.108;2023-09-18T12:24:20;7.85;;;5.35;;
12591;SDS011;6361;52.120;5.108;2023-09-18T12:29:12;5.53;;;4.70;;
12591;SDS011;6361;52.120;5.108;2023-09-18T12:31:37;7.53;;;4.50;;
12591;SDS011;6361;52.120;5.108;2023-09-18T12:34:03;8.68;;;4.72;;
12591;SDS011;6361;52.120;5.108;2023-09-18T12:36:32;10.68;;;4.72;;
12591;SDS011;6361;52.120;5.108;2023-09-18T12:38:58;7.70;;;4.10;;
12591;SDS011;6361;52.120;5.108;2023-09-18T12:41:28;9.88;;;4.60;;
12591;SDS011;6361;52.120;5.108;2023-09-18T12:43:55;6.30;;;4.25;;
12591;SDS011;6361;52.120;5.108;2023-09-18T12:46:21;6.85;;;4.05;;
12591;SDS011;6361;52.120;5.108;2023-09-18T12:48:47;6.55;;;3.90;;
12591;SDS011;6361;52.120;5.108;2023-09-18T12:51:13;6.38;;;4.00;;
12591;SDS011;6361;52.120;5.108;2023-09-18T12:53:47;17.65;;;4.97;;
12591;SDS011;6361;52.120;5.108;2023-09-18T12:56:13;7.93;;;4.40;;
12591;SDS011;6361;52.120;5.108;2023-09-18T12:58:39;8.77;;;4.05;;
12591;SDS011;6361;52.120;5.108;2023-09-18T13:01:06;6.88;;;4.20;;
12591;SDS011;6361;52.120;5.108;2023-09-18T13:03:33;6.82;;;4.75;;
12591;SDS011;6361;52.120;5.108;2023-09-18T13:06:15;7.90;;;4.47;;
12591;SDS011;6361;52.120;5.108;2023-09-18T13:08:45;9.50;;;5.30;;
12591;SDS011;6361;52.120;5.108;2023-09-18T13:11:12;10.82;;;5.43;;
12591;SDS011;6361;52.120;5.108;2023-09-18T13:13:39;7.18;;;5.72;;
12591;SDS011;6361;52.120;5.108;2023-09-18T13:16:06;10.30;;;6.30;;
12591;SDS011;6361;52.120;5.108;2023-09-18T13:18:33;7.55;;;6.22;;
12591;SDS011;6361;52.120;5.108;2023-09-18T13:20:59;9.45;;;6.75;;
12591;SDS011;6361;52.120;5.108;2023-09-18T13:23:28;10.93;;;7.05;;
12591;SDS011;6361;52.120;5.108;2023-09-18T13:26:01;8.93;;;6.22;;
12591;SDS011;6361;52.120;5.108;2023-09-18T13:28:28;9.27;;;5.63;;
12591;SDS011;6361;52.120;5.108;2023-09-18T13:30:56;11.45;;;6.03;;
12591;SDS011;6361;52.120;5.108;2023-09-18T13:33:21;7.25;;;5.40;;
12591;SDS011;6361;52.120;5.108;2023-09-18T13:35:48;9.68;;;5.93;;
12591;SDS011;6361;52.120;5.108;2023-09-18T13:38:14;8.38;;;5.00;;
12591;SDS011;6361;52.120;5.108;2023-09-18T13:40:40;7.95;;;5.60;;
12591;SDS011;6361;52.120;5.108;2023-09-18T13:43:06;6.40;;;4.80;;
12591;SDS011;6361;52.120;5.108;2023-09-18T13:45:33;8.88;;;4.75;;
12591;SDS011;6361;52.120;5.108;2023-09-18T13:48:03;10.50;;;5.53;;
12591;SDS011;6361;52.120;5.108;2023-09-18T13:50:29;6.43;;;4.95;;
12591;SDS011;6361;52.120;5.108;2023-09-18T13:52:54;7.00;;;5.10;;
12591;SDS011;6361;52.120;5.108;2023-09-18T13:55:20;8.27;;;5.18;;
12591;SDS011;6361;52.120;5.108;2023-09-18T13:57:45;6.97;;;4.57;;
12591;SDS011;6361;52.120;5.108;2023-09-18T14:00:11;6.95;;;4.32;;
12591;SDS011;6361;52.120;5.108;2023-09-18T14:02:39;5.28;;;4.35;;
12591;SDS011;6361;52.120;5.108;2023-09-18T14:05:05;5.18;;;4.00;;
12591;SDS011;6361;52.120;5.108;2023-09-18T14:07:31;6.22;;;3.50;;
12591;SDS011;6361;52.120;5.108;2023-09-18T14:09:56;8.98;;;3.42;;
12591;SDS011;6361;52.120;5.108;2023-09-18T14:12:23;4.88;;;2.92;;
12591;SDS011;6361;52.120;5.108;2023-09-18T14:14:49;5.05;;;3.25;;
12591;SDS011;6361;52.120;5.108;2023-09-18T14:17:15;6.70;;;3.00;;
12591;SDS011;6361;52.120;5.108;2023-09-18T14:19:42;5.88;;;2.80;;
12591;SDS011;6361;52.120;5.108;2023-09-18T14:22:08;2.97;;;2.67;;
12591;SDS011;6361;52.120;5.108;2023-09-18T14:24:33;5.75;;;2.67;;
12591;SDS011;6361;52.120;5.108;2023-09-18T14:27:05;6.05;;;2.80;;
12591;SDS011;6361;52.120;5.108;2023-09-18T14:29:32;5.25;;;2.83;;
12591;SDS011;6361;52.120;5.108;2023-09-18T14:32:01;5.25;;;2.75;;
12591;SDS011;6361;52.120;5.108;2023-09-18T14:34:27;7.43;;;2.85;;
12591;SDS011;6361;52.120;5.108;2023-09-18T14:36:53;4.55;;;2.72;;
12591;SDS011;6361;52.120;5.108;2023-09-18T14:39:18;4.75;;;2.85;;
12591;SDS011;6361;52.120;5.108;2023-09-18T14:41:44;8.13;;;2.90;;
12591;SDS011;6361;52.120;5.108;2023-09-18T14:44:09;7.18;;;2.80;;
12591;SDS011;6361;52.120;5.108;2023-09-18T14:46:35;3.17;;;2.55;;
12591;SDS011;6361;52.120;5.108;2023-09-18T14:49:04;4.15;;;2.67;;
12591;SDS011;6361;52.120;5.108;2023-09-18T14:51:30;4.18;;;2.65;;
12591;SDS011;6361;52.120;5.108;2023-09-18T14:53:57;8.93;;;2.40;;
12591;SDS011;6361;52.120;5.108;2023-09-18T14:56:23;4.50;;;2.83;;
12591;SDS011;6361;52.120;5.108;2023-09-18T14:58:49;8.27;;;3.40;;
12591;SDS011;6361;52.120;5.108;2023-09-18T15:01:16;10.52;;;3.42;;